KLAN/LAN METAR and TAF weather

Enter ICAO airport designator
Station Type Date Time Source
KLAN METAR 2019/02/22 23:53 UTC NOAA

KLAN 222353Z 03004KT 9SM CLR 00/M06 A3041 RMK AO2 SLP312 T00001056 10033 20000 53000


Station Type Date Time Source
KLAN Decoded METAR 2019/02/22 23:53 UTC NOAA

CAPITAL CITY AIRPORT, MI, United States (KLAN) 42-47N 084-35W 264M
Feb 22, 2019 - 06:53 PM EST / 2019.02.22 2353 UTC
Wind: from the NNE (030 degrees) at 5 MPH (4 KT):0
Visibility: 9 mile(s):0
Sky conditions: clear
Temperature: 32.0 F (0.0 C)
Windchill: 26 F (-3 C):1
Dew Point: 21.9 F (-5.6 C)
Relative Humidity: 65%
Pressure (altimeter): 30.41 in. Hg (1029 hPa)
Pressure tendency: 0.00 inches (0.0 hPa) higher than three hours ago
ob: KLAN 222353Z 03004KT 9SM CLR 00/M06 A3041 RMK AO2 SLP312 T00001056 10033 20000 53000
cycle: 0

Station Type Date Time Source
KLAN TAF 2019/02/22 18:33 UTC NOAA

TAF KLAN 221730Z 2218/2318 10004KT P6SM SCT200
FM230100 08005KT P6SM SCT150
FM230800 09006KT P6SM OVC080
FM231500 09011KT 5SM BR OVC040


Example: see airport list